Time;durP1;ratioP1;P1;durP2;ratioP2;P2;SDS_P1;SDS_P2;PMS_P1;PMS_P2;Temp;Humidity;BMP_temperature;BMP_pressure;BME280_temperature;BME280_humidity;BME280_pressure;Samples;Min_cycle;Max_cycle;Signal;HPM_P1;HPM_P2
2021/08/24 00:00:55;;;;;;;7.80;3.83;;;14.30;99.90;;;;;;4427208;28;657287;-72
2021/08/24 00:03:43;;;;;;;9.93;5.10;;;14.30;99.90;;;;;;4401246;28;655631;-72
2021/08/24 00:06:31;;;;;;;13.37;5.17;;;14.30;99.90;;;;;;4426656;28;655546;-72
2021/08/24 00:09:19;;;;;;;14.17;5.60;;;14.30;99.90;;;;;;4403203;28;658775;-72
2021/08/24 00:12:09;;;;;;;15.13;6.77;;;14.40;99.90;;;;;;4432532;28;656193;-72
2021/08/24 00:14:56;;;;;;;13.53;6.20;;;14.40;99.90;;;;;;4394430;28;656692;-72
2021/08/24 00:17:44;;;;;;;9.43;5.13;;;14.40;99.90;;;;;;4407259;28;656441;-72
2021/08/24 00:20:32;;;;;;;17.60;6.77;;;14.40;99.90;;;;;;4432193;28;655292;-72
2021/08/24 00:23:20;;;;;;;14.60;5.63;;;14.40;99.90;;;;;;4391817;28;657425;-72
2021/08/24 00:26:08;;;;;;;14.97;6.67;;;14.40;99.90;;;;;;4386930;28;657298;-72
2021/08/24 00:28:57;;;;;;;12.10;6.47;;;14.40;99.90;;;;;;4413277;28;657333;-72
2021/08/24 00:31:44;;;;;;;12.63;6.97;;;14.40;99.90;;;;;;4391365;28;657886;-72
2021/08/24 00:34:32;;;;;;;14.53;6.83;;;14.50;99.90;;;;;;4408599;28;656959;-72
2021/08/24 00:37:21;;;;;;;18.87;8.67;;;14.50;99.90;;;;;;4412446;28;657498;-72
2021/08/24 00:40:10;;;;;;;18.30;7.50;;;14.60;99.90;;;;;;4393569;28;656309;-72
2021/08/24 00:42:57;;;;;;;17.13;7.67;;;14.70;99.90;;;;;;4391964;28;656777;-72
2021/08/24 00:45:54;;;;;;;20.20;7.30;;;14.70;99.90;;;;;;4416392;28;657568;-72
2021/08/24 00:48:43;;;;;;;17.33;7.73;;;14.80;99.90;;;;;;4379930;28;656644;-72
2021/08/24 00:51:31;;;;;;;18.53;9.30;;;14.80;99.90;;;;;;4413120;28;657232;-73
2021/08/24 00:54:20;;;;;;;39.97;14.87;;;14.90;99.90;;;;;;4394458;28;656895;-73
2021/08/24 00:57:11;;;;;;;44.20;17.00;;;15.00;99.90;;;;;;4394153;28;658019;-72
2021/08/24 00:59:58;;;;;;;39.90;15.80;;;15.10;99.90;;;;;;4387312;28;658174;-73
2021/08/24 01:02:49;;;;;;;44.87;19.47;;;15.20;99.90;;;;;;4406244;28;657659;-73
2021/08/24 01:05:37;;;;;;;40.07;15.07;;;15.30;99.90;;;;;;4382534;28;657555;-72
2021/08/24 01:08:30;;;;;;;34.13;13.17;;;15.30;99.90;;;;;;4392546;28;658401;-72
2021/08/24 01:11:21;;;;;;;37.03;12.33;;;15.30;99.90;;;;;;4369444;28;657711;-72
2021/08/24 01:14:14;;;;;;;41.83;14.57;;;15.30;99.90;;;;;;4392174;28;657810;-72
2021/08/24 01:17:06;;;;;;;37.17;13.83;;;15.30;99.90;;;;;;4383723;28;657389;-72
2021/08/24 01:20:06;;;;;;;36.07;14.70;;;15.30;99.90;;;;;;4392274;28;657933;-72
2021/08/24 01:23:46;;;;;;;40.87;14.10;;;15.30;99.90;;;;;;4366154;28;658034;-72
2021/08/24 01:26:37;;;;;;;46.17;16.03;;;15.40;99.90;;;;;;4369790;28;658417;-72
2021/08/24 01:29:50;;;;;;;44.60;15.67;;;15.40;99.90;;;;;;4392635;28;658725;-72
2021/08/24 01:32:56;;;;;;;50.77;18.83;;;15.40;99.90;;;;;;4373288;28;657302;-72
2021/08/24 01:35:58;;;;;;;49.28;17.83;;;15.40;99.90;;;;;;4396722;28;658423;-72
2021/08/24 01:38:53;;;;;;;44.70;15.17;;;15.30;99.90;;;;;;4392042;28;657877;-72
2021/08/24 01:42:00;;;;;;;40.43;15.67;;;15.30;99.90;;;;;;4392533;28;657999;-72
2021/08/24 01:44:55;;;;;;;38.93;17.10;;;15.30;99.90;;;;;;4363293;28;657806;-72
2021/08/24 01:47:46;;;;;;;43.17;15.37;;;15.30;99.90;;;;;;4368619;28;658009;-72
2021/08/24 01:50:35;;;;;;;41.90;17.07;;;15.40;99.90;;;;;;4393380;28;657901;-72
2021/08/24 01:53:25;;;;;;;37.80;16.85;;;15.40;99.90;;;;;;4399467;28;657545;-72
2021/08/24 01:56:14;;;;;;;33.10;14.83;;;15.40;99.90;;;;;;4396048;28;657372;-72
2021/08/24 01:59:05;;;;;;;39.50;15.87;;;15.40;99.90;;;;;;4405578;28;657642;-72
2021/08/24 02:01:55;;;;;;;31.83;14.77;;;15.40;99.90;;;;;;4395769;28;658234;-72
2021/08/24 02:04:45;;;;;;;32.33;14.67;;;15.40;99.90;;;;;;4398932;28;657694;-72
2021/08/24 02:07:33;;;;;;;27.70;14.07;;;15.40;99.90;;;;;;4390806;28;657626;-72
2021/08/24 02:10:23;;;;;;;27.20;14.57;;;15.40;99.90;;;;;;4413837;28;658166;-72
2021/08/24 02:13:12;;;;;;;31.50;13.60;;;15.40;99.90;;;;;;4378819;28;657520;-72
2021/08/24 02:15:59;;;;;;;27.43;13.53;;;15.40;99.90;;;;;;4391210;28;658076;-72
2021/08/24 02:18:49;;;;;;;26.60;13.90;;;15.40;99.90;;;;;;4417877;28;656906;-72
2021/08/24 02:21:40;;;;;;;25.97;13.80;;;15.40;99.90;;;;;;4384021;28;657960;-73
2021/08/24 02:24:30;;;;;;;23.15;13.23;;;15.40;99.90;;;;;;4387772;28;658647;-73
2021/08/24 02:27:22;;;;;;;22.47;11.80;;;15.30;99.90;;;;;;4394961;28;658264;-72
2021/08/24 02:30:10;;;;;;;23.38;12.30;;;15.30;99.90;;;;;;4395433;28;658391;-73
2021/08/24 02:32:58;;;;;;;24.43;12.30;;;15.30;99.90;;;;;;4394831;28;657673;-72
2021/08/24 02:35:46;;;;;;;28.87;12.13;;;15.30;99.90;;;;;;4416916;28;658825;-73
2021/08/24 02:38:36;;;;;;;30.53;13.47;;;15.30;99.90;;;;;;4387094;28;659016;-72
2021/08/24 02:41:27;;;;;;;22.03;12.40;;;15.20;99.90;;;;;;4389447;28;658904;-73
2021/08/24 02:44:18;;;;;;;28.27;12.03;;;15.20;99.90;;;;;;4387950;28;658225;-73
2021/08/24 02:47:05;;;;;;;34.80;12.83;;;15.10;99.90;;;;;;4384164;28;658565;-73
2021/08/24 02:49:53;;;;;;;40.77;12.00;;;15.10;99.90;;;;;;4393132;28;657864;-72
2021/08/24 02:52:41;;;;;;;32.97;13.57;;;15.10;99.90;;;;;;4406021;28;657711;-72
2021/08/24 02:55:29;;;;;;;71.33;13.50;;;15.10;99.90;;;;;;4382346;28;657729;-72
2021/08/24 02:58:17;;;;;;;46.33;13.30;;;15.10;99.90;;;;;;4413590;28;658113;-73
2021/08/24 03:01:06;;;;;;;46.63;13.10;;;15.10;99.90;;;;;;4394915;28;657972;-72
2021/08/24 03:03:53;;;;;;;62.17;12.13;;;15.20;99.90;;;;;;4394763;28;657570;-73
2021/08/24 03:06:43;;;;;;;69.03;12.50;;;15.20;99.90;;;;;;4413383;28;658495;-72
2021/08/24 03:09:31;;;;;;;72.23;13.47;;;15.10;99.90;;;;;;4385675;28;658506;-73
2021/08/24 03:12:25;;;;;;;56.40;14.03;;;15.20;99.90;;;;;;4394210;28;658002;-73
2021/08/24 03:15:16;;;;;;;127.27;13.10;;;15.20;99.90;;;;;;4392737;28;657650;-73
2021/08/24 03:18:08;;;;;;;121.13;12.77;;;15.20;99.90;;;;;;4393552;28;659653;-72
2021/08/24 03:20:57;;;;;;;119.47;12.50;;;15.20;99.90;;;;;;4388992;28;659141;-72
2021/08/24 03:23:45;;;;;;;156.75;12.80;;;15.20;99.90;;;;;;4380181;28;658899;-72
2021/08/24 03:26:34;;;;;;;120.83;13.33;;;15.20;99.90;;;;;;4410163;28;658885;-73
2021/08/24 03:29:23;;;;;;;130.17;12.90;;;15.10;99.90;;;;;;4423139;28;658743;-72
2021/08/24 03:32:10;;;;;;;132.93;13.07;;;15.10;99.90;;;;;;4426060;28;659161;-73
2021/08/24 03:34:59;;;;;;;161.77;15.33;;;15.10;99.90;;;;;;4410447;28;658655;-73
2021/08/24 03:37:47;;;;;;;183.27;14.50;;;15.10;99.90;;;;;;4429630;28;658552;-73
2021/08/24 03:40:35;;;;;;;132.23;13.20;;;15.00;99.90;;;;;;4406574;28;659023;-73
2021/08/24 03:43:22;;;;;;;181.73;14.17;;;15.00;99.90;;;;;;4412597;28;658965;-73
2021/08/24 03:46:10;;;;;;;142.20;13.77;;;15.00;99.90;;;;;;4428387;28;659352;-73
2021/08/24 03:48:57;;;;;;;151.57;13.52;;;15.00;99.90;;;;;;4409345;28;658888;-73
2021/08/24 03:51:46;;;;;;;118.33;13.37;;;14.90;99.90;;;;;;4429039;28;659054;-73
2021/08/24 03:54:34;;;;;;;74.23;12.70;;;15.00;99.90;;;;;;4409822;28;659710;-73
2021/08/24 03:57:21;;;;;;;82.27;12.30;;;15.00;99.90;;;;;;4414087;28;657516;-73
2021/08/24 04:00:09;;;;;;;162.73;14.90;;;14.90;99.90;;;;;;4407018;28;658687;-73
2021/08/24 04:02:57;;;;;;;211.73;15.63;;;15.00;99.90;;;;;;4411462;28;658847;-73
2021/08/24 04:05:45;;;;;;;51.90;14.00;;;15.00;99.90;;;;;;4432363;28;659118;-73
2021/08/24 04:08:34;;;;;;;99.57;15.07;;;15.00;99.90;;;;;;4404830;28;657912;-73
2021/08/24 04:11:21;;;;;;;88.43;16.07;;;15.00;99.90;;;;;;4430300;28;657797;-73
2021/08/24 04:14:09;;;;;;;123.73;15.27;;;15.10;99.90;;;;;;4406331;28;658482;-73
2021/08/24 04:16:57;;;;;;;154.00;14.73;;;15.10;99.90;;;;;;4429086;28;659617;-73
2021/08/24 04:19:44;;;;;;;174.97;16.27;;;15.10;99.90;;;;;;4406459;28;659935;-73
2021/08/24 04:22:33;;;;;;;90.77;15.17;;;15.20;99.90;;;;;;4422780;28;658909;-72
2021/08/24 04:25:22;;;;;;;62.57;14.60;;;15.10;99.90;;;;;;4421739;28;657406;-73
2021/08/24 04:28:37;;;;;;;67.07;14.93;;;15.20;99.90;;;;;;4400185;28;657995;-73
2021/08/24 04:31:25;;;;;;;45.77;14.60;;;15.20;99.90;;;;;;4407240;28;658023;-73
2021/08/24 04:34:12;;;;;;;42.93;15.13;;;15.20;99.90;;;;;;4411208;28;657585;-73
2021/08/24 04:37:00;;;;;;;51.43;16.47;;;15.10;99.90;;;;;;4432792;28;658455;-73
2021/08/24 04:39:48;;;;;;;48.57;18.00;;;15.20;99.90;;;;;;4410932;28;657611;-73
2021/08/24 04:42:37;;;;;;;44.10;17.70;;;15.20;99.90;;;;;;4422634;28;659129;-73
2021/08/24 04:45:25;;;;;;;38.60;18.33;;;15.20;99.90;;;;;;4399334;28;658789;-73
2021/08/24 04:48:12;;;;;;;44.00;17.60;;;15.20;99.90;;;;;;4414920;28;658066;-73
2021/08/24 04:51:00;;;;;;;43.10;16.23;;;15.30;99.90;;;;;;4433690;28;658301;-73
2021/08/24 04:53:48;;;;;;;38.80;16.83;;;15.30;99.90;;;;;;4405982;28;657310;-73
2021/08/24 04:56:35;;;;;;;43.57;17.60;;;15.30;99.90;;;;;;4431895;28;658184;-73
2021/08/24 04:59:30;;;;;;;39.37;16.83;;;15.40;99.90;;;;;;4412423;28;657569;-72
2021/08/24 05:02:20;;;;;;;38.50;17.30;;;15.40;99.90;;;;;;4412238;28;657612;-73
2021/08/24 05:05:10;;;;;;;39.17;16.90;;;15.40;99.90;;;;;;4407058;28;658156;-73
2021/08/24 05:07:59;;;;;;;34.90;16.80;;;15.40;99.90;;;;;;4408412;28;658247;-72
2021/08/24 05:10:48;;;;;;;41.53;16.93;;;15.30;99.90;;;;;;4436511;28;657147;-73
2021/08/24 05:13:40;;;;;;;38.30;17.27;;;15.30;99.90;;;;;;4414163;28;657670;-73
2021/08/24 05:16:31;;;;;;;37.20;16.33;;;15.30;99.90;;;;;;4386624;28;658307;-72
2021/08/24 05:19:20;;;;;;;39.93;17.50;;;15.30;99.90;;;;;;4413205;28;657774;-73
2021/08/24 05:22:09;;;;;;;44.50;18.17;;;15.40;99.90;;;;;;4410159;28;657289;-73
2021/08/24 05:25:00;;;;;;;38.93;18.00;;;15.40;99.90;;;;;;4436047;28;657311;-73
2021/08/24 05:27:48;;;;;;;44.03;18.10;;;15.40;99.90;;;;;;4413110;28;657628;-73
2021/08/24 05:30:35;;;;;;;41.13;18.63;;;15.40;99.90;;;;;;4425562;28;657844;-72
2021/08/24 05:33:29;;;;;;;37.17;17.70;;;15.40;99.90;;;;;;4413642;28;657716;-73
2021/08/24 05:36:18;;;;;;;38.47;17.23;;;15.50;99.90;;;;;;4403521;28;657610;-73
2021/08/24 05:39:07;;;;;;;38.60;17.47;;;15.50;99.90;;;;;;4413847;28;658117;-73
2021/08/24 05:41:58;;;;;;;39.20;17.60;;;15.50;99.90;;;;;;4401986;28;658893;-72
2021/08/24 05:44:48;;;;;;;38.07;17.50;;;15.60;99.90;;;;;;4404739;28;657840;-73
2021/08/24 05:47:39;;;;;;;38.28;18.77;;;15.70;99.90;;;;;;4401779;28;658572;-73
2021/08/24 05:50:30;;;;;;;35.63;17.33;;;15.80;99.90;;;;;;4425220;28;657459;-72
2021/08/24 05:53:20;;;;;;;37.30;17.27;;;15.80;99.90;;;;;;4404144;28;658165;-72
2021/08/24 05:56:14;;;;;;;32.50;17.63;;;15.90;99.90;;;;;;4412914;28;657449;-72
2021/08/24 05:59:12;;;;;;;32.30;17.27;;;15.90;99.90;;;;;;4408649;28;657374;-73
2021/08/24 06:01:59;;;;;;;30.70;16.77;;;15.90;99.90;;;;;;4403591;28;657373;-73
2021/08/24 06:04:52;;;;;;;32.00;17.20;;;15.90;99.90;;;;;;4424688;28;657473;-72
2021/08/24 06:07:44;;;;;;;35.20;17.47;;;16.00;99.90;;;;;;4395756;28;658668;-73
2021/08/24 06:10:39;;;;;;;36.40;18.10;;;16.00;99.90;;;;;;4390675;28;657442;-72
2021/08/24 06:13:33;;;;;;;33.73;17.43;;;16.00;99.90;;;;;;4404281;28;657628;-72
2021/08/24 06:16:24;;;;;;;34.83;17.27;;;16.00;99.90;;;;;;4405325;28;657922;-73
2021/08/24 06:19:18;;;;;;;35.33;16.60;;;16.10;99.90;;;;;;4396740;28;658258;-73
2021/08/24 06:22:07;;;;;;;24.80;13.73;;;16.10;99.90;;;;;;4408532;28;657904;-73
2021/08/24 06:24:58;;;;;;;25.40;11.33;;;16.00;99.90;;;;;;4411592;28;657603;-71
2021/08/24 06:27:50;;;;;;;12.77;8.00;;;16.00;99.90;;;;;;4406894;28;657006;-71
2021/08/24 06:30:38;;;;;;;16.80;7.03;;;15.90;99.90;;;;;;4388303;28;656809;-71
2021/08/24 06:33:27;;;;;;;21.57;6.53;;;15.80;99.90;;;;;;4428468;28;656583;-71
2021/08/24 06:36:15;;;;;;;49.87;10.10;;;15.70;99.90;;;;;;4409077;28;657290;-71
2021/08/24 06:39:03;;;;;;;16.10;6.30;;;15.70;99.90;;;;;;4401869;28;657271;-71
2021/08/24 06:41:53;;;;;;;49.03;11.53;;;15.70;99.90;;;;;;4425596;28;657035;-71
2021/08/24 06:44:40;;;;;;;46.53;15.03;;;15.60;99.90;;;;;;4405105;28;658422;-71
2021/08/24 06:47:28;;;;;;;10.53;5.90;;;15.50;99.90;;;;;;4410101;28;657737;-71
2021/08/24 06:50:15;;;;;;;16.63;10.03;;;15.40;99.90;;;;;;4425289;28;657494;-71
2021/08/24 06:53:03;;;;;;;10.53;4.37;;;15.30;99.90;;;;;;4407505;28;657577;-71
2021/08/24 06:55:51;;;;;;;5.03;3.67;;;15.30;99.90;;;;;;4430475;28;656665;-71
2021/08/24 06:58:40;;;;;;;4.70;3.93;;;15.20;99.90;;;;;;4412905;28;655842;-71
2021/08/24 07:01:29;;;;;;;13.37;9.23;;;15.20;99.90;;;;;;4415111;28;655913;-71
2021/08/24 07:04:17;;;;;;;7.30;5.23;;;15.20;99.90;;;;;;4431694;28;656880;-71
2021/08/24 07:07:04;;;;;;;6.60;4.87;;;15.10;99.90;;;;;;4414401;28;656057;-71
2021/08/24 07:09:52;;;;;;;11.37;8.10;;;15.10;99.90;;;;;;4430777;28;655582;-71
2021/08/24 07:12:40;;;;;;;7.60;5.43;;;15.10;99.90;;;;;;4431663;28;656503;-71
2021/08/24 07:15:31;;;;;;;6.40;4.53;;;15.00;99.90;;;;;;4410954;28;656051;-71
2021/08/24 07:18:18;;;;;;;5.43;4.30;;;15.00;99.90;;;;;;4410541;28;655575;-71
2021/08/24 07:21:08;;;;;;;5.33;3.50;;;15.00;99.90;;;;;;4427231;28;655294;-71
2021/08/24 07:23:55;;;;;;;3.97;2.87;;;15.00;99.90;;;;;;4402796;28;656793;-71
2021/08/24 07:26:43;;;;;;;3.03;2.47;;;15.00;99.90;;;;;;4405864;28;656347;-71
2021/08/24 07:29:32;;;;;;;5.50;3.13;;;14.90;99.90;;;;;;4431940;28;656152;-71
2021/08/24 07:32:21;;;;;;;3.90;1.93;;;15.00;99.90;;;;;;4414107;28;655959;-71
2021/08/24 07:35:10;;;;;;;4.17;2.60;;;15.10;99.90;;;;;;4412086;28;655436;-71
2021/08/24 07:37:58;;;;;;;8.30;4.90;;;15.10;99.90;;;;;;4406199;28;655249;-71
2021/08/24 07:40:46;;;;;;;4.93;2.20;;;15.20;99.90;;;;;;4430815;28;655578;-71
2021/08/24 07:43:33;;;;;;;1.40;1.30;;;15.20;99.90;;;;;;4413979;28;655794;-71
2021/08/24 07:46:21;;;;;;;2.87;2.00;;;15.30;99.90;;;;;;4430265;28;654705;-71
2021/08/24 07:49:10;;;;;;;2.50;1.60;;;15.30;99.90;;;;;;4412582;28;656369;-71
2021/08/24 07:51:58;;;;;;;4.60;1.40;;;15.30;99.90;;;;;;4406352;28;655741;-72
2021/08/24 07:54:45;;;;;;;7.53;2.87;;;15.30;99.90;;;;;;4430010;28;656528;-72
2021/08/24 07:57:33;;;;;;;2.20;1.80;;;15.40;99.90;;;;;;4410298;28;656238;-71
2021/08/24 08:00:21;;;;;;;2.07;1.23;;;15.30;99.90;;;;;;4429570;28;655729;-70
2021/08/24 08:03:09;;;;;;;2.80;1.70;;;15.30;99.90;;;;;;4404028;28;657058;-71
2021/08/24 08:05:58;;;;;;;1.50;1.40;;;15.20;99.90;;;;;;4435051;28;655143;-71
2021/08/24 08:08:45;;;;;;;2.77;2.07;;;15.10;99.90;;;;;;4402471;28;656239;-71
2021/08/24 08:11:35;;;;;;;3.50;1.60;;;15.00;99.90;;;;;;4413076;28;655299;-71
2021/08/24 08:14:23;;;;;;;3.30;1.97;;;14.90;99.90;;;;;;4411536;28;655785;-71
2021/08/24 08:17:11;;;;;;;3.33;2.20;;;14.80;99.90;;;;;;4430491;28;655795;-71
2021/08/24 08:19:59;;;;;;;3.20;1.50;;;14.70;99.90;;;;;;4412928;28;655543;-71
2021/08/24 08:22:49;;;;;;;4.07;1.70;;;14.60;99.90;;;;;;4426745;28;655123;-71
2021/08/24 08:25:37;;;;;;;4.47;4.07;;;14.60;99.90;;;;;;4425460;28;656569;-71
2021/08/24 08:28:25;;;;;;;3.17;2.67;;;14.40;99.90;;;;;;4430896;28;656792;-71
2021/08/24 08:31:14;;;;;;;2.50;2.00;;;14.40;99.90;;;;;;4408629;28;656383;-71
2021/08/24 08:34:01;;;;;;;2.15;1.88;;;14.30;99.90;;;;;;4417916;28;655349;-71
2021/08/24 08:36:50;;;;;;;1.40;1.20;;;14.30;99.90;;;;;;4407408;28;655674;-71
2021/08/24 08:39:39;;;;;;;9.77;5.87;;;14.20;99.90;;;;;;4406136;28;655615;-71
2021/08/24 08:42:49;;;;;;;10.93;6.13;;;14.10;99.90;;;;;;4424973;28;655041;-71
2021/08/24 08:45:40;;;;;;;3.77;2.70;;;14.10;99.90;;;;;;4404861;28;656491;-71
2021/08/24 08:48:37;;;;;;;1.70;1.50;;;14.10;99.90;;;;;;4389544;28;655761;-71
2021/08/24 08:51:33;;;;;;;5.27;1.43;;;14.10;99.90;;;;;;4381326;28;656893;-70
2021/08/24 08:54:22;;;;;;;2.57;1.77;;;14.10;99.90;;;;;;4397801;28;655468;-72
2021/08/24 08:57:13;;;;;;;3.33;1.87;;;14.10;99.90;;;;;;4407306;28;655936;-71
2021/08/24 09:00:06;;;;;;;2.97;2.10;;;14.00;99.90;;;;;;4402916;28;655809;-71
2021/08/24 09:03:03;;;;;;;4.33;2.80;;;14.00;99.90;;;;;;4413009;28;655328;-70
2021/08/24 09:05:51;;;;;;;3.47;2.17;;;14.00;99.90;;;;;;4408220;28;656041;-70
2021/08/24 09:08:41;;;;;;;8.10;4.75;;;14.00;99.90;;;;;;4409232;28;655450;-71
2021/08/24 09:11:32;;;;;;;5.43;3.37;;;14.00;99.90;;;;;;4408177;28;656164;-70
2021/08/24 09:14:28;;;;;;;4.33;2.43;;;14.00;99.90;;;;;;4400534;28;656092;-71
2021/08/24 09:17:24;;;;;;;2.27;1.70;;;14.00;99.90;;;;;;4364263;28;655992;-71
2021/08/24 09:20:20;;;;;;;6.27;2.63;;;14.00;99.90;;;;;;4403497;28;655766;-71
2021/08/24 09:23:10;;;;;;;3.03;2.00;;;14.00;99.90;;;;;;4389067;28;655430;-69
2021/08/24 09:26:05;;;;;;;3.17;1.40;;;14.00;99.90;;;;;;4370692;28;656404;-70
2021/08/24 09:28:56;;;;;;;2.77;2.07;;;14.00;99.90;;;;;;4411189;28;655529;-70
2021/08/24 09:31:45;;;;;;;2.23;1.63;;;14.00;99.90;;;;;;4402429;28;655342;-70
2021/08/24 09:34:35;;;;;;;2.20;1.50;;;14.00;99.90;;;;;;4406106;28;655551;-69
2021/08/24 09:37:23;;;;;;;3.07;2.37;;;14.00;99.90;;;;;;4409295;28;655627;-70
2021/08/24 09:40:11;;;;;;;2.43;1.70;;;14.00;99.90;;;;;;4428709;28;656077;-70
2021/08/24 09:42:59;;;;;;;1.90;1.57;;;14.00;99.90;;;;;;4412012;28;655955;-70
2021/08/24 09:45:47;;;;;;;6.17;3.40;;;14.00;99.90;;;;;;4429842;28;655578;-70
2021/08/24 09:48:54;;;;;;;3.23;2.13;;;14.00;99.90;;;;;;4409117;28;656383;-71
2021/08/24 09:51:44;;;;;;;9.03;2.53;;;13.90;99.90;;;;;;4406862;28;656107;-70
2021/08/24 09:54:34;;;;;;;27.37;6.67;;;13.90;99.90;;;;;;4409106;28;655842;-70
2021/08/24 09:57:25;;;;;;;34.47;10.50;;;13.90;99.90;;;;;;4430592;28;656596;-70
2021/08/24 10:00:19;;;;;;;6.33;3.73;;;13.90;99.90;;;;;;4386850;28;658211;-70
2021/08/24 10:03:20;;;;;;;4.43;3.20;;;13.90;99.90;;;;;;4411275;28;656126;-70
2021/08/24 10:06:24;;;;;;;4.77;2.37;;;14.00;99.90;;;;;;4393142;28;655712;-70
2021/08/24 10:09:17;;;;;;;4.50;2.60;;;14.00;99.90;;;;;;4408213;28;655215;-70
2021/08/24 10:12:16;;;;;;;12.50;6.40;;;14.00;99.90;;;;;;4386709;28;656060;-71
2021/08/24 10:15:23;;;;;;;3.87;2.83;;;14.10;99.90;;;;;;4409208;28;657349;-70
2021/08/24 10:18:12;;;;;;;3.70;2.60;;;14.10;99.90;;;;;;4409021;28;656120;-73
2021/08/24 10:21:01;;;;;;;5.03;3.33;;;14.10;99.90;;;;;;4409895;28;656094;-73
2021/08/24 10:23:53;;;;;;;4.87;2.53;;;14.20;99.90;;;;;;4411701;28;655798;-73
2021/08/24 10:26:41;;;;;;;3.70;2.63;;;14.20;99.90;;;;;;4409232;28;656181;-70
2021/08/24 10:29:30;;;;;;;3.40;2.30;;;14.30;99.90;;;;;;4409757;28;655660;-70
2021/08/24 10:32:24;;;;;;;13.97;7.93;;;14.30;99.90;;;;;;4414225;28;655766;-70
2021/08/24 10:35:15;;;;;;;21.93;10.07;;;14.30;99.90;;;;;;4408692;28;657813;-77
2021/08/24 10:38:03;;;;;;;9.77;5.13;;;14.30;99.90;;;;;;4411296;28;657809;-70
2021/08/24 10:40:52;;;;;;;10.00;5.30;;;14.30;99.90;;;;;;4432451;28;656718;-70
2021/08/24 10:43:39;;;;;;;4.53;2.77;;;14.30;99.90;;;;;;4412909;28;656383;-71
2021/08/24 10:46:28;;;;;;;5.43;3.47;;;14.30;99.90;;;;;;4427782;28;655919;-71
2021/08/24 10:49:15;;;;;;;6.73;4.40;;;14.30;99.90;;;;;;4433947;28;656545;-72
2021/08/24 10:52:09;;;;;;;2.67;2.00;;;14.30;99.90;;;;;;4407778;28;656180;-72
2021/08/24 10:55:01;;;;;;;5.37;3.60;;;14.30;99.90;;;;;;4408463;28;655770;-72
2021/08/24 10:57:59;;;;;;;3.90;2.87;;;14.30;99.90;;;;;;4383073;28;657318;-71
2021/08/24 11:00:51;;;;;;;6.17;2.93;;;14.30;99.90;;;;;;4406111;28;656269;-71
2021/08/24 11:04:03;;;;;;;5.35;3.13;;;14.30;99.90;;;;;;4385543;28;656070;-71
2021/08/24 11:06:54;;;;;;;3.27;2.40;;;14.30;99.90;;;;;;4409025;28;655973;-72
2021/08/24 11:09:46;;;;;;;3.33;2.30;;;14.30;99.90;;;;;;4402470;28;656093;-70
2021/08/24 11:12:37;;;;;;;3.20;2.37;;;14.30;99.90;;;;;;4408841;28;656316;-71
2021/08/24 11:15:40;;;;;;;4.47;3.03;;;14.30;99.90;;;;;;4409641;28;656849;-71
2021/08/24 11:18:38;;;;;;;3.53;2.10;;;14.30;99.90;;;;;;4384668;28;655177;-71
2021/08/24 11:21:30;;;;;;;5.03;2.63;;;14.30;99.90;;;;;;4409813;28;656404;-71
2021/08/24 11:24:24;;;;;;;9.57;4.40;;;14.30;99.90;;;;;;4382661;28;656744;-71
2021/08/24 11:27:16;;;;;;;2.83;1.90;;;14.40;99.90;;;;;;4396179;28;657032;-71
2021/08/24 11:30:09;;;;;;;4.53;2.80;;;14.30;99.90;;;;;;4412638;28;656520;-71
2021/08/24 11:33:01;;;;;;;6.73;2.60;;;14.30;99.90;;;;;;4403922;28;656956;-71
2021/08/24 11:35:53;;;;;;;14.03;4.57;;;14.40;99.90;;;;;;4413123;28;657145;-71
2021/08/24 11:38:42;;;;;;;3.67;1.70;;;14.40;99.90;;;;;;4403525;28;658928;-71
2021/08/24 11:41:30;;;;;;;6.10;3.30;;;14.40;99.90;;;;;;4412396;28;657098;-71
2021/08/24 11:44:19;;;;;;;2.53;1.90;;;14.40;99.90;;;;;;4412701;28;656296;-71
2021/08/24 11:47:09;;;;;;;4.53;3.20;;;14.30;99.90;;;;;;4420336;28;656240;-71
2021/08/24 11:50:01;;;;;;;3.10;2.00;;;14.30;99.90;;;;;;4412882;28;656396;-71
2021/08/24 11:52:50;;;;;;;1.97;1.70;;;14.30;99.90;;;;;;4410371;28;656587;-70
2021/08/24 11:55:40;;;;;;;2.67;1.53;;;14.30;99.90;;;;;;4411664;28;656833;-71
2021/08/24 11:58:33;;;;;;;13.73;6.73;;;14.20;99.90;;;;;;4412895;28;656369;-70
2021/08/24 12:01:22;;;;;;;17.10;7.50;;;14.30;99.90;;;;;;4410209;28;657943;-70
2021/08/24 12:04:10;;;;;;;8.63;4.23;;;14.30;99.90;;;;;;4406074;28;658676;-70
2021/08/24 12:07:00;;;;;;;2.25;1.48;;;14.30;99.90;;;;;;4410595;28;656490;-70
2021/08/24 12:09:49;;;;;;;1.80;1.40;;;14.30;99.90;;;;;;4412427;28;656222;-70
2021/08/24 12:12:47;;;;;;;2.93;1.93;;;14.30;99.90;;;;;;4423573;28;656979;-71
2021/08/24 12:15:40;;;;;;;4.73;2.60;;;14.30;99.90;;;;;;4378348;28;657395;-71
2021/08/24 12:18:28;;;;;;;6.00;2.40;;;14.30;99.90;;;;;;4387129;28;656292;-71
2021/08/24 12:21:30;;;;;;;5.57;2.60;;;14.40;99.90;;;;;;4422094;28;656799;-71
2021/08/24 12:24:57;;;;;;;5.00;2.50;;;14.30;99.90;;;;;;4377925;28;656886;-71
2021/08/24 12:28:03;;;;;;;3.70;2.53;;;14.40;99.90;;;;;;4382578;28;656793;-71
2021/08/24 12:31:39;;;;;;;8.27;3.93;;;14.30;99.90;;;;;;4398007;28;657010;-71
2021/08/24 12:34:50;;;;;;;6.17;3.43;;;14.30;99.90;;;;;;4403992;28;658122;-71
2021/08/24 12:37:54;;;;;;;6.30;2.77;;;14.30;99.90;;;;;;4385004;28;656878;-71
2021/08/24 12:41:00;;;;;;;10.43;3.13;;;14.30;99.90;;;;;;4407942;28;656866;-71
2021/08/24 12:43:51;;;;;;;33.97;7.70;;;14.30;99.90;;;;;;4406855;28;657319;-71
2021/08/24 12:46:39;;;;;;;61.70;14.33;;;14.30;99.90;;;;;;4410491;28;657554;-71
2021/08/24 12:49:32;;;;;;;30.43;9.97;;;14.40;99.90;;;;;;4427310;28;659299;-71
2021/08/24 12:52:31;;;;;;;8.33;4.97;;;14.30;99.90;;;;;;4381629;28;658030;-71
2021/08/24 12:55:38;;;;;;;4.03;3.03;;;14.40;99.90;;;;;;4370695;28;657043;-71
2021/08/24 12:58:28;;;;;;;7.90;4.00;;;14.40;99.90;;;;;;4403309;28;657718;-71
2021/08/24 13:01:17;;;;;;;20.13;8.70;;;14.30;99.90;;;;;;4394828;28;657396;-71
2021/08/24 13:04:08;;;;;;;11.27;4.23;;;14.30;99.90;;;;;;4402322;28;658300;-71
2021/08/24 13:07:14;;;;;;;6.20;3.50;;;14.30;99.90;;;;;;4405992;28;658292;-71
2021/08/24 13:10:14;;;;;;;14.37;5.03;;;14.20;99.90;;;;;;4401818;28;657068;-71
2021/08/24 13:13:03;;;;;;;15.50;5.83;;;14.20;99.90;;;;;;4406953;28;657515;-71
2021/08/24 13:15:54;;;;;;;7.53;4.10;;;14.20;99.90;;;;;;4404927;28;658691;-71
2021/08/24 13:18:45;;;;;;;15.50;7.13;;;14.10;99.90;;;;;;4390631;28;656519;-71
2021/08/24 13:21:39;;;;;;;16.50;5.77;;;14.10;99.90;;;;;;4408779;28;657869;-71
2021/08/24 13:24:34;;;;;;;11.55;4.18;;;14.00;99.90;;;;;;4397042;28;657497;-70
2021/08/24 13:27:27;;;;;;;7.50;4.50;;;14.00;99.90;;;;;;4386947;28;658089;-71
2021/08/24 13:30:16;;;;;;;6.60;4.20;;;14.10;99.90;;;;;;4410699;28;657448;-71
2021/08/24 13:33:06;;;;;;;8.20;4.13;;;14.10;99.90;;;;;;4412049;28;656514;-70
2021/08/24 13:35:56;;;;;;;5.23;3.63;;;14.10;99.90;;;;;;4405542;28;657236;-71
2021/08/24 13:38:45;;;;;;;11.90;5.57;;;14.20;99.90;;;;;;4405850;28;656868;-71
2021/08/24 13:41:36;;;;;;;10.93;5.80;;;14.30;99.90;;;;;;4412832;28;657484;-71
2021/08/24 13:44:26;;;;;;;9.40;4.77;;;14.30;99.90;;;;;;4406783;28;657634;-71
2021/08/24 13:47:17;;;;;;;5.03;3.10;;;14.40;99.90;;;;;;4411934;28;656680;-71
2021/08/24 13:50:06;;;;;;;7.33;4.50;;;14.50;99.90;;;;;;4419275;28;658064;-71
2021/08/24 13:53:00;;;;;;;22.57;8.20;;;14.60;99.90;;;;;;4419111;28;656604;-71
2021/08/24 13:55:51;;;;;;;11.40;4.10;;;14.60;99.90;;;;;;4384993;28;657542;-71
2021/08/24 13:58:40;;;;;;;7.40;4.00;;;14.70;99.90;;;;;;4408221;28;658711;-71
2021/08/24 14:01:30;;;;;;;13.10;5.70;;;14.60;99.90;;;;;;4413909;28;656449;-71
2021/08/24 14:04:20;;;;;;;6.47;3.20;;;14.70;99.90;;;;;;4410093;28;657524;-70
2021/08/24 14:07:11;;;;;;;8.13;3.97;;;14.70;99.90;;;;;;4407042;28;656099;-70
2021/08/24 14:10:02;;;;;;;7.50;3.83;;;14.70;99.90;;;;;;4412986;28;656875;-71
2021/08/24 14:12:52;;;;;;;6.77;4.13;;;14.70;99.90;;;;;;4410152;28;657764;-71
2021/08/24 14:15:40;;;;;;;6.40;4.20;;;14.70;99.90;;;;;;4400564;28;657109;-70
2021/08/24 14:18:31;;;;;;;4.57;2.97;;;14.60;99.90;;;;;;4396647;28;656832;-70
2021/08/24 14:21:19;;;;;;;5.30;2.23;;;14.60;99.90;;;;;;4414433;28;656357;-70
2021/08/24 14:24:13;;;;;;;6.13;2.50;;;14.60;99.90;;;;;;4425276;28;656440;-71
2021/08/24 14:27:00;;;;;;;4.67;2.80;;;14.50;99.90;;;;;;4407983;28;657484;-71